createdAt,value
2022-09-03T00:00:26.465Z,15.06
2022-09-03T00:02:58.741Z,14.98
2022-09-03T00:05:31.533Z,14.96
2022-09-03T00:07:58.374Z,14.98
2022-09-03T00:10:31.150Z,14.90
2022-09-03T00:13:00.205Z,14.95
2022-09-03T00:15:27.710Z,14.96
2022-09-03T00:17:57.624Z,14.99
2022-09-03T00:20:50.770Z,14.97
2022-09-03T00:23:25.258Z,15.12
2022-09-03T00:26:10.737Z,15.22
2022-09-03T00:29:00.607Z,15.18
2022-09-03T00:31:33.739Z,15.05
2022-09-03T00:34:04.422Z,14.98
2022-09-03T00:36:34.192Z,14.94
2022-09-03T00:39:01.024Z,14.92
2022-09-03T00:41:39.456Z,14.88
2022-09-03T00:44:14.916Z,14.86
2022-09-03T00:46:53.726Z,14.78
2022-09-03T00:49:20.524Z,14.70
2022-09-03T00:52:05.912Z,14.73
2022-09-03T00:54:32.726Z,14.64
2022-09-03T00:57:11.894Z,14.61
2022-09-03T00:59:41.537Z,14.50
2022-09-03T01:02:23.760Z,14.42
2022-09-03T01:04:56.787Z,14.39
2022-09-03T01:07:29.683Z,14.55
2022-09-03T01:10:12.008Z,14.54
2022-09-03T01:12:56.242Z,14.45
2022-09-03T01:15:41.604Z,14.37
2022-09-03T01:18:17.638Z,14.38
2022-09-03T01:20:59.287Z,14.30
2022-09-03T01:23:46.338Z,14.26
2022-09-03T01:26:27.114Z,14.18
2022-09-03T01:29:06.888Z,14.27
2022-09-03T01:31:33.762Z,14.09
2022-09-03T01:34:16.183Z,14.10
2022-09-03T01:36:48.804Z,14.03
2022-09-03T01:39:34.523Z,13.98
2022-09-03T01:42:20.684Z,14.00
2022-09-03T01:44:53.978Z,13.94
2022-09-03T01:47:34.023Z,13.97
2022-09-03T01:50:06.975Z,13.96
2022-09-03T01:52:46.187Z,13.91
2022-09-03T01:55:28.777Z,13.90
2022-09-03T01:57:58.465Z,13.82
2022-09-03T02:00:26.880Z,13.81
2022-09-03T02:02:54.015Z,13.73
2022-09-03T02:05:22.522Z,13.70
2022-09-03T02:07:59.419Z,13.67
2022-09-03T02:10:32.478Z,13.64
2022-09-03T02:13:06.569Z,13.62
2022-09-03T02:15:35.326Z,13.61
2022-09-03T02:18:03.619Z,13.54
2022-09-03T02:20:30.682Z,13.62
2022-09-03T02:22:58.879Z,13.61
2022-09-03T02:25:29.711Z,13.72
2022-09-03T02:27:57.398Z,13.86
2022-09-03T02:30:24.236Z,13.88
2022-09-03T02:32:51.078Z,13.84
2022-09-03T02:35:18.088Z,13.78
2022-09-03T02:37:44.917Z,13.84
2022-09-03T02:40:11.818Z,13.87
2022-09-03T02:42:38.673Z,13.87
2022-09-03T02:45:08.387Z,13.86
2022-09-03T02:47:36.499Z,13.71
2022-09-03T02:50:03.533Z,13.84
2022-09-03T02:52:30.331Z,13.95
2022-09-03T02:54:57.155Z,13.57
2022-09-03T02:57:27.726Z,13.71
2022-09-03T02:59:55.059Z,13.74
2022-09-03T03:02:21.962Z,13.84
2022-09-03T03:04:49.111Z,13.78
2022-09-03T03:07:15.938Z,13.93
2022-09-03T03:09:42.755Z,13.67
2022-09-03T03:12:09.660Z,13.76
2022-09-03T03:14:36.504Z,13.97
2022-09-03T03:17:03.736Z,14.03
2022-09-03T03:19:30.618Z,13.62
2022-09-03T03:21:58.444Z,13.58
2022-09-03T03:24:25.258Z,13.20
2022-09-03T03:26:55.243Z,13.20
2022-09-03T03:29:22.085Z,13.22
2022-09-03T03:31:48.956Z,13.35
2022-09-03T03:34:15.781Z,13.49
2022-09-03T03:36:42.793Z,13.70
2022-09-03T03:39:11.343Z,14.03
2022-09-03T03:41:39.089Z,13.99
2022-09-03T03:44:07.089Z,13.84
2022-09-03T03:46:35.604Z,13.51
2022-09-03T03:49:02.783Z,13.51
2022-09-03T03:51:30.627Z,13.60
2022-09-03T03:53:59.403Z,13.83
2022-09-03T03:56:28.921Z,13.88
2022-09-03T03:58:56.040Z,13.87
2022-09-03T04:01:24.352Z,13.79
2022-09-03T04:03:51.445Z,13.76
2022-09-03T04:06:19.356Z,13.89
2022-09-03T04:08:48.401Z,13.82
2022-09-03T04:11:18.265Z,13.97
2022-09-03T04:13:45.659Z,14.01
2022-09-03T04:16:13.986Z,14.06
2022-09-03T04:18:41.350Z,14.11
2022-09-03T04:21:09.501Z,14.20
2022-09-03T04:23:37.621Z,14.18
2022-09-03T04:26:04.904Z,14.27
2022-09-03T04:28:32.203Z,14.17
2022-09-03T04:31:03.622Z,14.26
2022-09-03T04:33:31.123Z,14.36
2022-09-03T04:36:11.465Z,14.42
2022-09-03T04:38:39.659Z,14.55
2022-09-03T04:41:07.536Z,14.54
2022-09-03T04:43:35.636Z,14.41
2022-09-03T04:46:04.353Z,14.46
2022-09-03T04:48:32.054Z,14.55
2022-09-03T04:51:06.423Z,14.60
2022-09-03T04:53:34.590Z,14.66
2022-09-03T04:56:01.752Z,14.72
2022-09-03T04:58:28.720Z,14.73
2022-09-03T05:00:55.730Z,14.79
2022-09-03T05:03:22.737Z,14.88
2022-09-03T05:05:53.618Z,15.00
2022-09-03T05:08:20.505Z,15.10
2022-09-03T05:10:47.564Z,15.12
2022-09-03T05:13:15.425Z,15.06
2022-09-03T05:15:43.274Z,15.10
2022-09-03T05:18:10.127Z,15.01
2022-09-03T05:20:36.971Z,15.02
2022-09-03T05:23:04.124Z,15.10
2022-09-03T05:25:31.200Z,15.21
2022-09-03T05:27:58.260Z,15.33
2022-09-03T05:30:25.087Z,15.41
2022-09-03T05:32:52.052Z,15.41
2022-09-03T05:35:20.999Z,15.50
2022-09-03T05:37:51.019Z,15.51
2022-09-03T05:40:18.877Z,15.51
2022-09-03T05:42:45.739Z,15.55
2022-09-03T05:45:12.595Z,15.43
2022-09-03T05:47:39.548Z,15.38
2022-09-03T05:50:07.457Z,15.48
2022-09-03T05:52:34.859Z,15.54
2022-09-03T05:55:02.094Z,15.53
2022-09-03T05:57:30.183Z,15.53
2022-09-03T05:59:57.281Z,15.64
2022-09-03T06:02:24.212Z,15.71
2022-09-03T06:04:51.142Z,15.76
2022-09-03T06:07:17.973Z,15.88
2022-09-03T06:09:44.800Z,15.92
2022-09-03T06:12:11.639Z,16.03
2022-09-03T06:14:38.462Z,16.18
2022-09-03T06:17:05.319Z,16.30
2022-09-03T06:19:32.336Z,16.45
2022-09-03T06:21:59.191Z,16.48
2022-09-03T06:24:26.351Z,16.66
2022-09-03T06:26:58.550Z,16.75
2022-09-03T06:29:25.419Z,16.82
2022-09-03T06:31:52.350Z,16.92
2022-09-03T06:34:19.353Z,17.01
2022-09-03T06:36:46.268Z,17.11
2022-09-03T06:39:13.130Z,17.12
2022-09-03T06:41:39.971Z,17.19
2022-09-03T06:44:07.854Z,17.28
2022-09-03T06:46:35.548Z,17.18
2022-09-03T06:49:03.445Z,17.28
2022-09-03T06:51:31.464Z,17.39
2022-09-03T06:54:16.291Z,17.40
2022-09-03T06:56:43.141Z,17.50
2022-09-03T06:59:11.317Z,17.50
2022-09-03T07:01:38.528Z,17.52
2022-09-03T07:04:08.619Z,17.53
2022-09-03T07:06:36.982Z,17.55
2022-09-03T07:09:04.303Z,17.64
2022-09-03T07:11:31.257Z,17.69
2022-09-03T07:13:58.369Z,17.64
2022-09-03T07:16:29.274Z,17.74
2022-09-03T07:18:56.459Z,17.75
2022-09-03T07:21:24.664Z,17.77
2022-09-03T07:23:52.168Z,17.86
2022-09-03T07:26:20.187Z,17.82
2022-09-03T07:28:47.462Z,17.87
2022-09-03T07:31:18.700Z,17.94
2022-09-03T07:33:46.621Z,17.99
2022-09-03T07:36:15.280Z,17.90
2022-09-03T07:38:44.496Z,17.92
2022-09-03T07:41:12.651Z,17.92
2022-09-03T07:43:45.272Z,17.99
2022-09-03T07:46:12.257Z,18.00
2022-09-03T07:48:42.235Z,17.96
2022-09-03T07:51:09.616Z,18.05
2022-09-03T07:53:36.456Z,17.96
2022-09-03T07:56:07.201Z,18.10
2022-09-03T07:58:35.291Z,18.17
2022-09-03T08:01:06.483Z,18.16
2022-09-03T08:03:34.671Z,18.17
2022-09-03T08:06:02.923Z,18.16
2022-09-03T08:08:31.279Z,18.14
2022-09-03T08:11:11.483Z,18.16
2022-09-03T08:13:46.040Z,18.17
2022-09-03T08:16:14.452Z,18.16
2022-09-03T08:18:41.434Z,18.16
2022-09-03T08:21:12.421Z,18.11
2022-09-03T08:23:40.324Z,18.10
2022-09-03T08:26:07.629Z,17.98
2022-09-03T08:28:35.208Z,17.97
2022-09-03T08:31:08.888Z,17.94
2022-09-03T08:33:35.767Z,17.95
2022-09-03T08:36:21.748Z,17.96
2022-09-03T08:38:49.620Z,18.02
2022-09-03T08:41:17.994Z,18.04
2022-09-03T08:43:57.031Z,18.03
2022-09-03T08:46:27.571Z,18.01
2022-09-03T08:48:57.059Z,18.16
2022-09-03T08:51:25.511Z,18.24
2022-09-03T08:53:53.860Z,18.26
2022-09-03T08:56:31.191Z,18.28
2022-09-03T08:58:58.032Z,18.30
2022-09-03T09:01:30.741Z,18.40
2022-09-03T09:04:15.592Z,18.58
2022-09-03T09:07:01.210Z,18.72
2022-09-03T09:09:31.185Z,19.12
2022-09-03T09:12:04.122Z,19.58
2022-09-03T09:14:50.014Z,20.30
2022-09-03T09:17:16.859Z,20.37
2022-09-03T09:20:02.324Z,20.54
2022-09-03T09:22:37.576Z,20.88
2022-09-03T09:25:08.360Z,20.98
2022-09-03T09:27:35.205Z,20.75
2022-09-03T09:30:04.580Z,21.09
2022-09-03T09:32:32.739Z,20.73
2022-09-03T09:34:59.630Z,20.71
2022-09-03T09:37:26.460Z,20.84
2022-09-03T09:39:54.900Z,20.52
2022-09-03T09:42:22.528Z,20.45
2022-09-03T09:44:49.348Z,20.72
2022-09-03T09:47:17.217Z,20.86
2022-09-03T09:49:46.869Z,20.87
2022-09-03T09:52:15.274Z,20.95
2022-09-03T09:54:43.353Z,21.04
2022-09-03T09:57:17.600Z,21.40
2022-09-03T10:00:05.467Z,21.66
2022-09-03T10:02:40.539Z,21.96
2022-09-03T10:05:27.736Z,22.14
2022-09-03T10:08:02.315Z,22.30
2022-09-03T10:10:30.219Z,22.42
2022-09-03T10:13:00.602Z,22.76
2022-09-03T10:15:37.809Z,22.73
2022-09-03T10:18:22.195Z,22.85
2022-09-03T10:20:59.040Z,23.13
2022-09-03T10:23:27.113Z,23.17
2022-09-03T10:25:56.667Z,23.44
2022-09-03T10:28:30.188Z,23.60
2022-09-03T10:31:15.923Z,23.61
2022-09-03T10:33:51.228Z,23.86
2022-09-03T10:36:21.036Z,24.06
2022-09-03T10:38:58.650Z,24.18
2022-09-03T10:41:31.302Z,24.08
2022-09-03T10:44:06.996Z,23.97
2022-09-03T10:46:41.916Z,24.03
2022-09-03T10:49:24.992Z,24.10
2022-09-03T10:52:16.452Z,24.25
2022-09-03T10:54:48.818Z,24.47
2022-09-03T10:57:34.137Z,24.54
2022-09-03T11:00:06.051Z,24.92
2022-09-03T11:02:51.665Z,25.01
2022-09-03T11:05:20.554Z,24.82
2022-09-03T11:07:52.939Z,24.72
2022-09-03T11:10:22.572Z,24.75
2022-09-03T11:13:10.065Z,24.66
2022-09-03T11:15:44.919Z,24.47
2022-09-03T11:18:20.198Z,24.14
2022-09-03T11:20:49.016Z,24.24
2022-09-03T11:23:17.197Z,24.15
2022-09-03T11:25:51.219Z,23.76
2022-09-03T11:28:27.120Z,23.86
2022-09-03T11:31:03.079Z,23.87
2022-09-03T11:33:32.950Z,23.71
2022-09-03T11:36:00.568Z,23.59
2022-09-03T11:38:28.513Z,23.66
2022-09-03T11:40:55.303Z,23.59
2022-09-03T11:43:24.888Z,23.53
2022-09-03T11:46:10.837Z,23.63
2022-09-03T11:48:46.371Z,23.68
2022-09-03T11:51:33.014Z,23.96
2022-09-03T11:54:03.283Z,24.11
2022-09-03T11:56:31.348Z,23.90
2022-09-03T11:59:03.508Z,23.87
2022-09-03T12:01:31.914Z,23.88
2022-09-03T12:04:04.735Z,24.11
2022-09-03T12:06:40.615Z,24.09
2022-09-03T12:09:17.529Z,24.13
2022-09-03T12:11:44.381Z,24.21
2022-09-03T12:14:31.853Z,24.28
2022-09-03T12:17:25.074Z,24.12
2022-09-03T12:19:53.392Z,24.41
2022-09-03T12:22:21.377Z,24.49
2022-09-03T12:24:48.683Z,24.87
2022-09-03T12:27:18.585Z,25.13
2022-09-03T12:29:54.225Z,25.13
2022-09-03T12:32:21.643Z,25.63
2022-09-03T12:34:51.145Z,25.47
2022-09-03T12:38:03.343Z,25.58
2022-09-03T12:40:16.035Z,25.50
2022-09-03T12:42:42.910Z,25.41
2022-09-03T12:45:10.071Z,25.57
2022-09-03T12:47:40.767Z,25.33
2022-09-03T12:50:42.512Z,25.65
2022-09-03T12:53:21.514Z,26.06
2022-09-03T12:55:51.649Z,26.01
2022-09-03T12:58:24.645Z,26.18
2022-09-03T13:01:05.889Z,25.52
2022-09-03T13:03:51.702Z,25.85
2022-09-03T13:06:20.524Z,26.03
2022-09-03T13:08:48.909Z,26.03
2022-09-03T13:11:17.572Z,25.48
2022-09-03T13:14:02.304Z,24.95
2022-09-03T13:16:46.336Z,25.39
2022-09-03T13:19:21.277Z,25.58
2022-09-03T13:21:57.281Z,25.35
2022-09-03T13:24:39.339Z,25.71
2022-09-03T13:27:24.995Z,25.64
2022-09-03T13:29:52.663Z,25.73
2022-09-03T13:32:29.047Z,25.96
2022-09-03T13:35:08.665Z,25.66
2022-09-03T13:37:55.763Z,25.97
2022-09-03T13:40:25.660Z,26.36
2022-09-03T13:42:58.152Z,26.51
2022-09-03T13:45:44.075Z,26.62
2022-09-03T13:48:18.276Z,26.18
2022-09-03T13:50:49.350Z,26.28
2022-09-03T13:53:34.738Z,25.76
2022-09-03T13:56:16.448Z,25.86
2022-09-03T13:58:46.839Z,26.10
2022-09-03T14:01:19.186Z,25.73
2022-09-03T14:03:49.430Z,25.99
2022-09-03T14:06:24.450Z,26.23
2022-09-03T14:09:03.624Z,26.72
2022-09-03T14:11:52.451Z,27.03
2022-09-03T14:14:38.211Z,27.10
2022-09-03T14:17:05.086Z,26.72
2022-09-03T14:19:34.792Z,26.90
2022-09-03T14:22:06.751Z,27.30
2022-09-03T14:24:45.649Z,26.71
2022-09-03T14:27:12.975Z,26.98
2022-09-03T14:29:50.537Z,27.23
2022-09-03T14:32:27.053Z,26.96
2022-09-03T14:34:59.741Z,27.06
2022-09-03T14:37:45.463Z,27.30
2022-09-03T14:40:40.047Z,26.68
2022-09-03T14:43:21.734Z,26.61
2022-09-03T14:46:09.935Z,26.36
2022-09-03T14:48:46.047Z,26.51
2022-09-03T14:51:22.121Z,26.41
2022-09-03T14:53:51.750Z,26.57
2022-09-03T14:56:27.511Z,26.67
2022-09-03T14:59:09.115Z,26.53
2022-09-03T15:01:39.530Z,26.71
2022-09-03T15:04:09.842Z,26.49
2022-09-03T15:06:52.001Z,26.44
2022-09-03T15:09:24.820Z,25.98
2022-09-03T15:11:57.395Z,26.03
2022-09-03T15:14:35.029Z,25.89
2022-09-03T15:17:17.669Z,26.12
2022-09-03T15:19:44.489Z,26.30
2022-09-03T15:22:11.290Z,26.32
2022-09-03T15:24:45.234Z,26.46
2022-09-03T15:27:30.762Z,26.08
2022-09-03T15:30:11.399Z,26.29
2022-09-03T15:32:38.245Z,26.18
2022-09-03T15:35:14.289Z,26.02
2022-09-03T15:37:41.082Z,25.85
2022-09-03T15:40:10.697Z,25.95
2022-09-03T15:42:42.184Z,25.88
2022-09-03T15:45:20.793Z,25.89
2022-09-03T15:47:56.422Z,25.74
2022-09-03T15:50:39.223Z,25.85
2022-09-03T15:53:06.040Z,25.77
2022-09-03T15:55:42.188Z,25.82
2022-09-03T15:58:09.012Z,25.82
2022-09-03T16:00:48.932Z,25.83
2022-09-03T16:03:23.130Z,25.71
2022-09-03T16:05:54.887Z,25.68
2022-09-03T16:08:21.753Z,25.49
2022-09-03T16:11:01.399Z,25.40
2022-09-03T16:13:37.129Z,25.38
2022-09-03T16:16:06.131Z,25.19
2022-09-03T16:18:39.053Z,24.93
2022-09-03T16:21:12.239Z,24.65
2022-09-03T16:23:42.123Z,24.44
2022-09-03T16:26:24.095Z,24.39
2022-09-03T16:28:54.957Z,24.22
2022-09-03T16:31:37.239Z,24.10
2022-09-03T16:34:17.974Z,24.30
2022-09-03T16:36:54.836Z,24.35
2022-09-03T16:39:24.534Z,24.36
2022-09-03T16:42:06.432Z,24.35
2022-09-03T16:44:46.804Z,24.25
2022-09-03T16:47:27.764Z,24.11
2022-09-03T16:50:06.673Z,24.08
2022-09-03T16:52:45.620Z,23.98
2022-09-03T16:55:30.332Z,23.94
2022-09-03T16:57:59.919Z,23.77
2022-09-03T17:00:36.565Z,23.77
2022-09-03T17:03:26.068Z,23.69
2022-09-03T17:06:12.027Z,23.63
2022-09-03T17:08:54.136Z,23.59
2022-09-03T17:11:29.926Z,23.51
2022-09-03T17:14:04.194Z,23.32
2022-09-03T17:16:53.316Z,23.06
2022-09-03T17:19:38.848Z,22.88
2022-09-03T17:22:10.622Z,22.66
2022-09-03T17:24:40.550Z,22.51
2022-09-03T17:27:25.925Z,22.33
2022-09-03T17:30:03.339Z,22.13
2022-09-03T17:32:30.155Z,21.95
2022-09-03T17:35:04.612Z,21.70
2022-09-03T17:37:40.308Z,21.57
2022-09-03T17:40:39.661Z,21.42
2022-09-03T17:43:14.549Z,21.30
2022-09-03T17:45:54.244Z,21.19
2022-09-03T17:48:27.093Z,21.14
2022-09-03T17:50:57.148Z,21.03
2022-09-03T17:53:42.726Z,20.91
2022-09-03T17:56:22.175Z,20.87
2022-09-03T17:58:55.951Z,20.73
2022-09-03T18:01:28.308Z,20.68
2022-09-03T18:03:55.233Z,20.60
2022-09-03T18:06:40.548Z,20.53
2022-09-03T18:09:19.839Z,20.46
2022-09-03T18:11:51.029Z,20.34
2022-09-03T18:14:24.057Z,20.24
2022-09-03T18:17:03.251Z,20.19
2022-09-03T18:19:33.959Z,20.16
2022-09-03T18:22:04.028Z,20.17
2022-09-03T18:24:53.528Z,20.18
2022-09-03T18:27:20.344Z,20.24
2022-09-03T18:29:54.201Z,20.29
2022-09-03T18:32:21.841Z,20.32
2022-09-03T18:34:48.713Z,20.28
2022-09-03T18:37:18.611Z,20.27
2022-09-03T18:39:45.784Z,20.27
2022-09-03T18:42:39.526Z,20.25
2022-09-03T18:45:41.993Z,20.18
2022-09-03T18:48:22.065Z,20.04
2022-09-03T18:50:52.438Z,19.99
2022-09-03T18:53:39.224Z,19.91
2022-09-03T18:56:13.576Z,19.80
2022-09-03T18:58:59.696Z,19.67
2022-09-03T19:01:26.720Z,19.62
2022-09-03T19:04:02.745Z,19.47
2022-09-03T19:06:35.568Z,19.44
2022-09-03T19:09:28.657Z,19.38
2022-09-03T19:11:55.918Z,19.35
2022-09-03T19:14:41.458Z,19.35
2022-09-03T19:17:28.585Z,19.32
2022-09-03T19:20:07.601Z,19.30
2022-09-03T19:22:36.103Z,19.24
2022-09-03T19:25:05.203Z,19.12
2022-09-03T19:28:00.629Z,19.01
2022-09-03T19:30:27.447Z,18.90
2022-09-03T19:33:02.664Z,18.74
2022-09-03T19:35:34.112Z,18.65
2022-09-03T19:38:08.094Z,18.57
2022-09-03T19:41:13.344Z,18.47
2022-09-03T19:43:43.064Z,18.38
2022-09-03T19:46:09.964Z,18.31
2022-09-03T19:48:46.483Z,18.28
2022-09-03T19:51:20.253Z,18.27
2022-09-03T19:53:48.673Z,18.34
2022-09-03T19:56:23.583Z,18.40
2022-09-03T19:59:00.261Z,18.43
2022-09-03T20:01:32.876Z,18.39
2022-09-03T20:04:00.829Z,18.43
2022-09-03T20:06:29.151Z,18.44
2022-09-03T20:09:00.404Z,18.47
2022-09-03T20:11:29.838Z,18.46
2022-09-03T20:13:58.020Z,18.51
2022-09-03T20:16:45.126Z,18.55
2022-09-03T20:19:12.956Z,18.59
2022-09-03T20:21:43.545Z,18.62
2022-09-03T20:24:25.518Z,18.62
2022-09-03T20:27:10.882Z,18.59
2022-09-03T20:29:47.623Z,18.56
2022-09-03T20:32:26.929Z,18.48
2022-09-03T20:35:08.999Z,18.37
2022-09-03T20:37:48.569Z,18.27
2022-09-03T20:40:20.230Z,18.20
2022-09-03T20:42:47.152Z,18.17
2022-09-03T20:45:25.415Z,18.08
2022-09-03T20:48:07.514Z,18.06
2022-09-03T20:50:34.329Z,18.09
2022-09-03T20:53:10.052Z,18.05
2022-09-03T20:55:41.656Z,18.01
2022-09-03T20:58:23.629Z,18.01
2022-09-03T21:00:59.972Z,17.95
2022-09-03T21:03:32.741Z,17.94
2022-09-03T21:06:11.563Z,17.87
2022-09-03T21:08:41.546Z,17.74
2022-09-03T21:11:14.916Z,17.64
2022-09-03T21:14:02.090Z,17.54
2022-09-03T21:16:51.099Z,17.44
2022-09-03T21:19:36.415Z,17.27
2022-09-03T21:22:38.812Z,17.16
2022-09-03T21:25:08.397Z,17.06
2022-09-03T21:27:43.627Z,16.98
2022-09-03T21:30:14.562Z,16.88
2022-09-03T21:32:41.408Z,16.79
2022-09-03T21:35:08.229Z,16.67
2022-09-03T21:37:36.760Z,16.60
2022-09-03T21:40:08.039Z,16.60
2022-09-03T21:42:40.769Z,16.58
2022-09-03T21:45:28.091Z,16.56
2022-09-03T21:47:58.331Z,16.54
2022-09-03T21:50:34.685Z,16.54
2022-09-03T21:53:09.947Z,16.49
2022-09-03T21:55:36.763Z,16.48
2022-09-03T21:58:22.514Z,16.44
2022-09-03T22:00:51.738Z,16.39
2022-09-03T22:03:19.813Z,16.29
2022-09-03T22:05:53.946Z,16.25
2022-09-03T22:08:30.504Z,16.18
2022-09-03T22:11:09.880Z,16.10
2022-09-03T22:13:56.958Z,16.09
2022-09-03T22:16:34.979Z,16.03
2022-09-03T22:19:01.875Z,15.98
2022-09-03T22:21:32.195Z,15.91
2022-09-03T22:24:20.631Z,15.85
2022-09-03T22:26:59.284Z,15.82
2022-09-03T22:29:44.957Z,15.68
2022-09-03T22:32:34.564Z,15.66
2022-09-03T22:35:20.001Z,15.61
2022-09-03T22:37:55.645Z,15.57
2022-09-03T22:40:22.439Z,15.50
2022-09-03T22:42:49.232Z,15.46
2022-09-03T22:45:39.194Z,15.39
2022-09-03T22:48:24.820Z,15.32
2022-09-03T22:50:56.145Z,15.23
2022-09-03T22:53:22.984Z,15.18
2022-09-03T22:56:10.048Z,15.17
2022-09-03T22:58:39.644Z,15.10
2022-09-03T23:01:10.184Z,15.04
2022-09-03T23:03:45.084Z,14.96
2022-09-03T23:06:24.169Z,14.87
2022-09-03T23:08:58.787Z,14.82
2022-09-03T23:11:27.559Z,14.82
2022-09-03T23:14:05.735Z,14.78
2022-09-03T23:16:50.521Z,14.76
2022-09-03T23:21:51.193Z,14.60
2022-09-03T23:24:24.323Z,14.60
2022-09-03T23:26:51.569Z,14.60
2022-09-03T23:29:21.947Z,14.59
2022-09-03T23:31:48.882Z,14.55
2022-09-03T23:34:15.732Z,14.50
2022-09-03T23:37:15.974Z,14.43
2022-09-03T23:39:42.119Z,14.41
2022-09-03T23:42:20.651Z,14.37
2022-09-03T23:44:47.467Z,14.30
2022-09-03T23:47:34.152Z,14.25
2022-09-03T23:50:10.192Z,14.20
2022-09-03T23:52:37.025Z,14.18
2022-09-03T23:55:06.927Z,14.12
2022-09-03T23:57:38.720Z,14.07
